createdAt,value
2018-02-16T00:02:23.107Z,1.74
2018-02-16T00:04:51.468Z,1.83
2018-02-16T00:07:19.860Z,1.75
2018-02-16T00:09:48.230Z,1.78
2018-02-16T00:12:15.874Z,1.80
2018-02-16T00:14:44.390Z,1.87
2018-02-16T00:17:12.522Z,1.86
2018-02-16T00:19:41.030Z,1.85
2018-02-16T00:22:09.414Z,1.93
2018-02-16T00:24:37.035Z,2.01
2018-02-16T00:27:05.560Z,1.92
2018-02-16T00:29:33.918Z,1.90
2018-02-16T00:32:01.495Z,1.93
2018-02-16T00:34:29.923Z,1.98
2018-02-16T00:36:58.389Z,1.98
2018-02-16T00:39:27.002Z,2.02
2018-02-16T00:41:55.348Z,2.11
2018-02-16T00:44:23.754Z,2.11
2018-02-16T00:46:51.334Z,2.18
2018-02-16T00:49:18.920Z,2.19
2018-02-16T00:51:47.274Z,2.28
2018-02-16T00:54:15.637Z,2.40
2018-02-16T00:56:44.117Z,2.34
2018-02-16T00:59:12.640Z,2.31
2018-02-16T01:01:40.998Z,2.51
2018-02-16T01:04:08.620Z,2.51
2018-02-16T01:06:37.138Z,2.51
2018-02-16T01:09:04.761Z,2.69
2018-02-16T01:11:33.181Z,2.85
2018-02-16T01:14:01.526Z,2.83
2018-02-16T01:16:29.103Z,2.80
2018-02-16T01:18:56.677Z,2.92
2018-02-16T01:21:24.287Z,2.98
2018-02-16T01:23:51.938Z,2.87
2018-02-16T01:26:20.270Z,2.85
2018-02-16T01:28:47.846Z,2.88
2018-02-16T01:31:16.399Z,2.98
2018-02-16T01:33:43.980Z,2.90
2018-02-16T01:36:12.392Z,2.91
2018-02-16T01:38:40.005Z,3.07
2018-02-16T01:41:07.589Z,2.97
2018-02-16T01:43:35.207Z,2.98
2018-02-16T01:46:03.621Z,2.99
2018-02-16T01:48:31.243Z,3.11
2018-02-16T01:50:58.818Z,3.13
2018-02-16T01:53:27.311Z,3.23
2018-02-16T01:55:55.703Z,3.13
2018-02-16T01:58:24.076Z,3.12
2018-02-16T02:00:51.654Z,3.21
2018-02-16T02:03:19.967Z,3.17
2018-02-16T02:05:48.338Z,3.17
2018-02-16T02:08:15.916Z,3.13
2018-02-16T02:10:44.328Z,3.21
2018-02-16T02:13:11.907Z,3.16
2018-02-16T02:15:40.226Z,3.28
2018-02-16T02:18:07.806Z,3.26
2018-02-16T02:20:36.336Z,3.22
2018-02-16T02:23:04.719Z,3.15
2018-02-16T02:25:32.294Z,3.23
2018-02-16T02:27:59.914Z,3.35
2018-02-16T02:30:27.499Z,3.21
2018-02-16T02:32:55.083Z,3.17
2018-02-16T02:35:22.697Z,3.25
2018-02-16T02:37:50.277Z,3.25
2018-02-16T02:40:17.855Z,3.21
2018-02-16T02:42:45.454Z,3.18
2018-02-16T02:45:13.778Z,3.25
2018-02-16T02:47:41.356Z,3.24
2018-02-16T02:50:08.935Z,3.14
2018-02-16T02:52:36.551Z,3.10
2018-02-16T02:55:04.133Z,3.16
2018-02-16T02:57:31.715Z,3.18
2018-02-16T02:59:59.295Z,3.15
2018-02-16T03:02:26.959Z,3.18
2018-02-16T03:04:54.542Z,3.17
2018-02-16T03:07:22.119Z,3.15
2018-02-16T03:09:49.698Z,3.15
2018-02-16T03:12:17.274Z,3.01
2018-02-16T03:14:45.778Z,3.06
2018-02-16T03:17:14.174Z,3.03
2018-02-16T03:19:41.754Z,3.04
2018-02-16T03:22:10.235Z,3.08
2018-02-16T03:24:38.791Z,3.15
2018-02-16T03:27:06.372Z,3.13
2018-02-16T03:29:33.950Z,3.14
2018-02-16T03:32:02.290Z,3.12
2018-02-16T03:34:30.665Z,2.99
2018-02-16T03:36:58.288Z,3.05
2018-02-16T03:39:25.862Z,3.09
2018-02-16T03:41:54.338Z,3.02
2018-02-16T03:44:22.609Z,3.15
2018-02-16T03:46:50.191Z,3.12
2018-02-16T03:49:18.545Z,3.10
2018-02-16T03:51:46.906Z,3.05
2018-02-16T03:54:14.518Z,3.04
2018-02-16T03:56:42.951Z,3.09
2018-02-16T03:59:10.528Z,3.15
2018-02-16T04:01:38.139Z,3.30
2018-02-16T04:04:06.654Z,3.25
2018-02-16T04:06:34.298Z,3.26
2018-02-16T04:09:01.911Z,3.25
2018-02-16T04:11:29.486Z,3.26
2018-02-16T04:13:57.060Z,3.28
2018-02-16T04:16:25.339Z,3.25
2018-02-16T04:18:53.743Z,3.16
2018-02-16T04:21:22.018Z,3.11
2018-02-16T04:23:50.419Z,3.02
2018-02-16T04:26:18.707Z,3.07
2018-02-16T04:28:47.150Z,3.06
2018-02-16T04:31:14.730Z,3.20
2018-02-16T04:33:42.346Z,3.09
2018-02-16T04:36:09.925Z,3.01
2018-02-16T04:38:37.506Z,2.90
2018-02-16T04:41:05.803Z,2.80
2018-02-16T04:43:34.174Z,3.03
2018-02-16T04:46:01.804Z,2.92
2018-02-16T04:48:30.158Z,2.83
2018-02-16T04:50:57.800Z,2.81
2018-02-16T04:53:26.327Z,2.79
2018-02-16T04:55:54.760Z,2.77
2018-02-16T04:58:22.338Z,2.72
2018-02-16T05:00:50.749Z,2.85
2018-02-16T05:03:19.241Z,2.86
2018-02-16T05:05:47.610Z,2.81
2018-02-16T05:08:15.971Z,2.80
2018-02-16T05:10:44.339Z,2.95
2018-02-16T05:13:12.042Z,2.87
2018-02-16T05:15:40.699Z,2.82
2018-02-16T05:18:08.309Z,3.03
2018-02-16T05:20:35.886Z,3.00
2018-02-16T05:23:03.499Z,2.75
2018-02-16T05:25:31.078Z,2.83
2018-02-16T05:27:59.502Z,2.97
2018-02-16T05:30:27.878Z,3.07
2018-02-16T05:32:55.496Z,2.95
2018-02-16T05:35:23.153Z,3.03
2018-02-16T05:37:50.768Z,2.88
2018-02-16T05:40:19.195Z,2.96
2018-02-16T05:42:47.610Z,2.90
2018-02-16T05:45:16.194Z,2.78
2018-02-16T05:47:43.819Z,2.78
2018-02-16T05:50:11.458Z,2.56
2018-02-16T05:52:39.040Z,2.43
2018-02-16T05:55:06.620Z,2.40
2018-02-16T05:57:34.204Z,2.22
2018-02-16T06:00:02.489Z,2.14
2018-02-16T06:02:30.070Z,2.11
2018-02-16T06:04:57.730Z,1.87
2018-02-16T06:07:25.307Z,1.72
2018-02-16T06:09:52.994Z,1.57
2018-02-16T06:12:21.515Z,1.49
2018-02-16T06:14:49.939Z,1.46
2018-02-16T06:17:17.523Z,1.50
2018-02-16T06:19:45.098Z,1.72
2018-02-16T06:22:12.723Z,1.50
2018-02-16T06:24:40.308Z,1.42
2018-02-16T06:27:07.915Z,1.48
2018-02-16T06:29:35.489Z,1.44
2018-02-16T06:32:03.074Z,1.48
2018-02-16T06:34:30.687Z,1.40
2018-02-16T06:36:58.274Z,1.30
2018-02-16T06:39:25.959Z,1.33
2018-02-16T06:41:53.541Z,1.22
2018-02-16T06:44:21.158Z,1.27
2018-02-16T06:46:48.736Z,1.12
2018-02-16T06:49:16.355Z,1.11
2018-02-16T06:51:44.177Z,1.11
2018-02-16T06:54:11.801Z,1.22
2018-02-16T06:56:39.383Z,1.11
2018-02-16T06:59:06.967Z,1.15
2018-02-16T07:01:34.590Z,1.15
2018-02-16T07:04:02.170Z,1.31
2018-02-16T07:06:29.791Z,1.21
2018-02-16T07:08:57.533Z,1.19
2018-02-16T07:11:26.043Z,1.16
2018-02-16T07:13:54.234Z,1.14
2018-02-16T07:16:21.851Z,1.27
2018-02-16T07:18:49.428Z,1.30
2018-02-16T07:21:17.028Z,1.42
2018-02-16T07:23:44.652Z,1.36
2018-02-16T07:26:12.279Z,1.46
2018-02-16T07:28:39.919Z,1.46
2018-02-16T07:31:07.499Z,1.57
2018-02-16T07:33:35.619Z,1.64
2018-02-16T07:36:03.245Z,1.83
2018-02-16T07:38:31.416Z,1.73
2018-02-16T07:40:59.154Z,1.75
2018-02-16T07:43:28.969Z,1.81
2018-02-16T07:45:57.724Z,1.90
2018-02-16T07:48:25.982Z,1.89
2018-02-16T07:50:55.297Z,1.92
2018-02-16T07:53:22.974Z,1.96
2018-02-16T07:55:50.556Z,2.14
2018-02-16T07:58:18.208Z,2.17
2018-02-16T08:00:45.859Z,2.20
2018-02-16T08:03:13.535Z,2.25
2018-02-16T08:05:41.155Z,2.39
2018-02-16T08:08:09.579Z,2.47
2018-02-16T08:10:37.930Z,2.58
2018-02-16T08:13:05.630Z,2.70
2018-02-16T08:15:34.661Z,2.83
2018-02-16T08:18:03.508Z,2.92
2018-02-16T08:20:31.870Z,3.11
2018-02-16T08:23:00.025Z,3.16
2018-02-16T08:25:28.079Z,3.22
2018-02-16T08:27:56.271Z,3.31
2018-02-16T08:30:23.942Z,3.44
2018-02-16T08:32:52.329Z,3.47
2018-02-16T08:35:19.912Z,3.50
2018-02-16T08:37:47.488Z,3.63
2018-02-16T08:40:16.032Z,3.60
2018-02-16T08:42:43.616Z,3.68
2018-02-16T08:45:11.238Z,3.93
2018-02-16T08:47:39.715Z,4.11
2018-02-16T08:50:07.298Z,4.04
2018-02-16T08:52:34.883Z,4.09
2018-02-16T08:55:02.520Z,4.29
2018-02-16T08:57:30.911Z,4.30
2018-02-16T08:59:59.365Z,4.32
2018-02-16T09:02:27.722Z,4.37
2018-02-16T09:04:55.352Z,4.43
2018-02-16T09:07:22.932Z,4.45
2018-02-16T09:09:50.510Z,4.62
2018-02-16T09:12:18.157Z,4.61
2018-02-16T09:14:45.775Z,4.72
2018-02-16T09:17:13.394Z,4.91
2018-02-16T09:19:41.890Z,4.97
2018-02-16T09:22:09.510Z,5.02
2018-02-16T09:24:37.100Z,5.07
2018-02-16T09:27:05.586Z,5.09
2018-02-16T09:29:33.233Z,5.08
2018-02-16T09:32:00.816Z,5.01
2018-02-16T09:34:29.398Z,5.11
2018-02-16T09:36:57.663Z,5.25
2018-02-16T09:39:26.608Z,5.31
2018-02-16T09:41:54.191Z,5.41
2018-02-16T09:44:21.782Z,5.42
2018-02-16T09:46:49.369Z,5.50
2018-02-16T09:49:16.959Z,5.67
2018-02-16T09:51:44.536Z,5.62
2018-02-16T09:54:12.111Z,5.73
2018-02-16T09:56:39.683Z,5.82
2018-02-16T09:59:07.256Z,5.96
2018-02-16T10:01:34.835Z,5.97
2018-02-16T10:04:02.412Z,6.00
2018-02-16T10:06:30.022Z,6.20
2018-02-16T10:08:57.600Z,6.26
2018-02-16T10:11:25.174Z,6.35
2018-02-16T10:13:53.372Z,6.40
2018-02-16T10:16:21.030Z,6.52
2018-02-16T10:18:48.594Z,6.47
2018-02-16T10:21:16.210Z,6.56
2018-02-16T10:23:43.866Z,6.77
2018-02-16T10:26:11.474Z,6.70
2018-02-16T10:28:39.138Z,6.87
2018-02-16T10:31:06.710Z,6.99
2018-02-16T10:33:34.326Z,7.06
2018-02-16T10:36:01.972Z,7.25
2018-02-16T10:38:30.491Z,7.30
2018-02-16T10:40:58.071Z,7.51
2018-02-16T10:43:25.692Z,7.48
2018-02-16T10:45:53.266Z,7.54
2018-02-16T10:48:20.846Z,7.51
2018-02-16T10:50:48.436Z,7.48
2018-02-16T10:53:16.007Z,7.63
2018-02-16T10:55:43.609Z,7.53
2018-02-16T10:58:11.202Z,7.50
2018-02-16T11:00:44.502Z,7.38
2018-02-16T11:03:17.786Z,7.39
2018-02-16T11:05:53.846Z,7.54
2018-02-16T11:08:27.243Z,7.58
2018-02-16T11:10:54.878Z,7.57
2018-02-16T11:13:22.454Z,7.64
2018-02-16T11:15:50.030Z,7.62
2018-02-16T11:18:17.664Z,7.66
2018-02-16T11:20:45.306Z,7.65
2018-02-16T11:23:12.882Z,7.80
2018-02-16T11:25:40.466Z,7.88
2018-02-16T11:28:08.937Z,7.91
2018-02-16T11:30:37.401Z,7.81
2018-02-16T11:33:04.981Z,8.07
2018-02-16T11:35:32.557Z,8.18
2018-02-16T11:38:00.144Z,8.16
2018-02-16T11:40:27.716Z,8.29
2018-02-16T11:42:55.296Z,8.27
2018-02-16T11:45:23.664Z,8.40
2018-02-16T11:47:51.238Z,8.14
2018-02-16T11:50:18.812Z,7.96
2018-02-16T11:52:46.493Z,7.76
2018-02-16T11:55:14.135Z,7.59
2018-02-16T11:57:41.708Z,7.48
2018-02-16T12:00:09.314Z,7.40
2018-02-16T12:02:36.890Z,7.34
2018-02-16T12:05:04.488Z,7.32
2018-02-16T12:07:32.062Z,7.43
2018-02-16T12:09:59.640Z,7.43
2018-02-16T12:12:27.218Z,7.55
2018-02-16T12:14:54.800Z,7.58
2018-02-16T12:17:22.381Z,7.54
2018-02-16T12:19:49.961Z,7.61
2018-02-16T12:22:17.598Z,7.70
2018-02-16T12:24:46.119Z,7.71
2018-02-16T12:27:13.691Z,8.14
2018-02-16T12:29:41.266Z,8.62
2018-02-16T12:32:08.847Z,8.87
2018-02-16T12:34:36.425Z,8.93
2018-02-16T12:37:04.031Z,9.08
2018-02-16T12:39:31.616Z,8.87
2018-02-16T12:41:59.204Z,8.53
2018-02-16T12:44:26.823Z,8.23
2018-02-16T12:46:54.403Z,7.93
2018-02-16T12:49:21.978Z,7.72
2018-02-16T12:51:49.558Z,7.36
2018-02-16T12:54:17.135Z,7.30
2018-02-16T12:56:44.710Z,7.10
2018-02-16T12:59:12.318Z,6.90
2018-02-16T13:01:39.898Z,6.71
2018-02-16T13:04:07.473Z,6.64
2018-02-16T13:06:35.999Z,6.69
2018-02-16T13:09:03.618Z,6.84
2018-02-16T13:11:31.194Z,6.92
2018-02-16T13:13:58.774Z,6.99
2018-02-16T13:16:26.355Z,7.13
2018-02-16T13:18:53.926Z,7.25
2018-02-16T13:21:21.544Z,7.15
2018-02-16T13:23:49.119Z,7.25
2018-02-16T13:26:16.723Z,7.23
2018-02-16T13:28:45.097Z,7.32
2018-02-16T13:31:12.723Z,7.30
2018-02-16T13:33:40.295Z,7.31
2018-02-16T13:36:07.883Z,7.36
2018-02-16T13:38:35.456Z,7.41
2018-02-16T13:41:03.031Z,7.45
2018-02-16T13:43:30.602Z,7.53
2018-02-16T13:45:58.179Z,7.53
2018-02-16T13:48:25.806Z,7.37
2018-02-16T13:50:53.381Z,7.20
2018-02-16T13:53:20.975Z,7.21
2018-02-16T13:55:48.562Z,7.21
2018-02-16T13:58:17.050Z,7.51
2018-02-16T14:00:44.630Z,7.67
2018-02-16T14:03:12.211Z,7.72
2018-02-16T14:05:39.786Z,7.60
2018-02-16T14:08:07.359Z,7.60
2018-02-16T14:10:34.975Z,7.62
2018-02-16T14:13:02.551Z,7.78
2018-02-16T14:15:30.127Z,7.70
2018-02-16T14:17:57.700Z,7.74
2018-02-16T14:20:25.273Z,7.78
2018-02-16T14:22:52.846Z,7.75
2018-02-16T14:25:20.419Z,7.60
2018-02-16T14:27:47.995Z,7.70
2018-02-16T14:30:15.587Z,7.71
2018-02-16T14:32:43.162Z,7.46
2018-02-16T14:35:10.730Z,7.49
2018-02-16T14:37:39.202Z,7.25
2018-02-16T14:40:06.830Z,7.16
2018-02-16T14:42:35.318Z,7.09
2018-02-16T14:45:03.549Z,7.07
2018-02-16T14:47:31.130Z,6.97
2018-02-16T14:49:59.403Z,6.95
2018-02-16T14:52:26.983Z,6.77
2018-02-16T14:54:54.630Z,6.79
2018-02-16T14:57:22.264Z,6.72
2018-02-16T14:59:49.846Z,6.73
2018-02-16T15:02:17.421Z,6.61
2018-02-16T15:04:45.002Z,6.53
2018-02-16T15:07:13.415Z,6.47
2018-02-16T15:09:41.779Z,6.27
2018-02-16T15:12:10.240Z,6.29
2018-02-16T15:14:37.814Z,6.22
2018-02-16T15:17:06.187Z,6.21
2018-02-16T15:19:34.643Z,6.26
2018-02-16T15:22:03.023Z,6.18
2018-02-16T15:24:31.421Z,6.22
2018-02-16T15:26:59.938Z,6.22
2018-02-16T15:29:27.509Z,6.12
2018-02-16T15:31:55.131Z,6.06
2018-02-16T15:34:23.652Z,6.04
2018-02-16T15:36:51.250Z,5.97
2018-02-16T15:39:19.639Z,5.88
2018-02-16T15:41:47.219Z,5.82
2018-02-16T15:44:15.719Z,5.73
2018-02-16T15:46:43.295Z,5.70
2018-02-16T15:49:10.884Z,5.79
2018-02-16T15:51:39.483Z,5.68
2018-02-16T15:54:07.095Z,5.67
2018-02-16T15:56:34.674Z,5.52
2018-02-16T15:59:02.287Z,5.55
2018-02-16T16:01:29.864Z,5.53
2018-02-16T16:03:57.452Z,5.48
2018-02-16T16:06:29.524Z,5.37
2018-02-16T16:11:46.103Z,5.14
2018-02-16T16:14:13.650Z,5.06
2018-02-16T16:16:42.064Z,5.02
2018-02-16T16:19:09.615Z,4.88
2018-02-16T16:21:37.162Z,4.86
2018-02-16T16:24:04.710Z,4.89
2018-02-16T16:26:33.098Z,4.88
2018-02-16T16:29:00.686Z,4.92
2018-02-16T16:31:28.266Z,4.79
2018-02-16T16:33:55.856Z,4.71
2018-02-16T16:36:24.302Z,4.58
2018-02-16T16:38:51.894Z,4.46
2018-02-16T16:41:20.344Z,4.56
2018-02-16T16:43:47.935Z,4.46
2018-02-16T16:46:16.375Z,4.50
2018-02-16T16:48:44.907Z,4.48
2018-02-16T16:51:12.604Z,4.40
2018-02-16T16:53:40.193Z,4.38
2018-02-16T16:56:07.738Z,4.38
2018-02-16T16:58:35.278Z,4.32
2018-02-16T17:01:03.567Z,4.28
2018-02-16T17:03:31.847Z,4.20
2018-02-16T17:06:00.238Z,4.31
2018-02-16T17:08:28.554Z,4.19
2018-02-16T17:10:56.936Z,4.30
2018-02-16T17:13:25.266Z,4.11
2018-02-16T17:15:53.187Z,4.05
2018-02-16T17:18:21.522Z,3.95
2018-02-16T17:20:50.034Z,3.85
2018-02-16T17:23:18.290Z,3.87
2018-02-16T17:25:46.630Z,3.77
2018-02-16T17:28:14.177Z,3.74
2018-02-16T17:30:41.724Z,3.63
2018-02-16T17:33:09.286Z,3.62
2018-02-16T17:35:36.863Z,3.50
2018-02-16T17:38:05.318Z,3.46
2018-02-16T17:40:32.869Z,3.38
2018-02-16T17:43:00.418Z,3.30
2018-02-16T17:45:27.967Z,3.21
2018-02-16T17:50:24.187Z,3.31
2018-02-16T17:52:51.743Z,3.26
2018-02-16T17:55:19.292Z,3.25
2018-02-16T17:57:47.838Z,3.16
2018-02-16T18:00:17.807Z,3.10
2018-02-16T18:02:45.425Z,3.07
2018-02-16T18:05:12.973Z,2.91
2018-02-16T18:07:40.562Z,2.96
2018-02-16T18:10:08.114Z,2.92
2018-02-16T18:12:35.685Z,2.88
2018-02-16T18:15:03.231Z,2.86
2018-02-16T18:17:30.883Z,2.83
2018-02-16T18:19:59.051Z,2.70
2018-02-16T18:22:26.599Z,2.73
2018-02-16T18:24:54.142Z,2.92
2018-02-16T18:27:21.698Z,2.88
2018-02-16T18:29:49.254Z,2.93
2018-02-16T18:32:16.843Z,2.87
2018-02-16T18:34:44.422Z,3.03
2018-02-16T18:37:11.987Z,3.01
2018-02-16T18:39:39.541Z,2.89
2018-02-16T18:42:07.094Z,2.76
2018-02-16T18:44:35.464Z,2.76
2018-02-16T18:47:03.006Z,2.72
2018-02-16T18:49:30.550Z,2.63
2018-02-16T18:51:58.140Z,2.47
2018-02-16T18:54:25.678Z,2.44
2018-02-16T18:56:54.039Z,2.59
2018-02-16T18:59:22.310Z,2.47
2018-02-16T19:01:50.666Z,2.42
2018-02-16T19:04:18.998Z,2.27
2018-02-16T19:06:47.138Z,2.25
2018-02-16T19:09:14.695Z,2.21
2018-02-16T19:11:43.139Z,2.17
2018-02-16T19:14:11.395Z,2.21
2018-02-16T19:16:39.913Z,2.18
2018-02-16T19:19:08.286Z,2.20
2018-02-16T19:21:36.649Z,2.10
2018-02-16T19:24:04.230Z,2.03
2018-02-16T19:26:31.779Z,2.05
2018-02-16T19:28:59.369Z,2.12
2018-02-16T19:31:27.839Z,2.18
2018-02-16T19:33:56.211Z,2.13
2018-02-16T19:36:24.555Z,2.07
2018-02-16T19:38:52.107Z,2.18
2018-02-16T19:41:20.625Z,2.09
2018-02-16T19:43:48.903Z,2.07
2018-02-16T19:46:17.307Z,2.14
2018-02-16T19:48:45.560Z,2.09
2018-02-16T19:51:13.146Z,2.04
2018-02-16T19:53:40.694Z,2.04
2018-02-16T19:56:09.087Z,2.06
2018-02-16T19:58:36.630Z,1.81
2018-02-16T20:01:05.019Z,1.72
2018-02-16T20:03:32.571Z,1.67
2018-02-16T20:06:00.118Z,1.61
2018-02-16T20:08:28.459Z,1.54
2018-02-16T20:10:56.010Z,1.65
2018-02-16T20:13:23.558Z,1.66
2018-02-16T20:15:51.178Z,1.49
2018-02-16T20:18:19.091Z,1.46
2018-02-16T20:20:47.542Z,1.35
2018-02-16T20:23:15.095Z,1.26
2018-02-16T20:25:42.682Z,1.22
2018-02-16T20:28:10.235Z,1.12
2018-02-16T20:30:38.769Z,1.40
2018-02-16T20:33:07.102Z,1.30
2018-02-16T20:35:34.650Z,1.29
2018-02-16T20:38:02.252Z,1.28
2018-02-16T20:40:29.826Z,1.26
2018-02-16T20:42:57.388Z,1.37
2018-02-16T20:45:24.947Z,1.44
2018-02-16T20:47:52.505Z,1.32
2018-02-16T20:50:21.018Z,1.37
2018-02-16T20:52:48.579Z,1.32
2018-02-16T20:55:16.127Z,1.25
2018-02-16T20:57:43.675Z,1.11
2018-02-16T21:00:11.230Z,1.18
2018-02-16T21:02:38.826Z,1.20
2018-02-16T21:05:06.431Z,1.19
2018-02-16T21:07:33.979Z,1.21
2018-02-16T21:10:01.538Z,1.29
2018-02-16T21:12:29.091Z,1.30
2018-02-16T21:14:56.647Z,1.22
2018-02-16T21:17:24.202Z,1.09
2018-02-16T21:19:51.747Z,1.15
2018-02-16T21:22:19.297Z,1.24
2018-02-16T21:24:47.543Z,1.18
2018-02-16T21:27:15.094Z,1.20
2018-02-16T21:29:42.650Z,1.11
2018-02-16T21:32:10.250Z,1.05
2018-02-16T21:34:38.614Z,1.07
2018-02-16T21:37:07.010Z,1.08
2018-02-16T21:39:34.562Z,1.06
2018-02-16T21:42:02.162Z,0.97
2018-02-16T21:44:29.718Z,0.91
2018-02-16T21:46:58.207Z,0.98
2018-02-16T21:49:25.758Z,0.93
2018-02-16T21:51:53.311Z,1.04
2018-02-16T21:54:20.901Z,0.98
2018-02-16T21:56:48.466Z,0.96
2018-02-16T21:59:16.766Z,1.03
2018-02-16T22:01:44.321Z,0.96
2018-02-16T22:04:11.918Z,0.94
2018-02-16T22:06:39.496Z,0.91
2018-02-16T22:09:07.042Z,0.87
2018-02-16T22:11:34.595Z,0.84
2018-02-16T22:14:02.149Z,0.85
2018-02-16T22:16:29.705Z,0.92
2018-02-16T22:18:57.258Z,0.92
2018-02-16T22:21:24.831Z,0.83
2018-02-16T22:23:52.395Z,0.86
2018-02-16T22:26:19.994Z,0.78
2018-02-16T22:28:47.545Z,0.72
2018-02-16T22:31:15.109Z,0.68
2018-02-16T22:33:42.710Z,0.59
2018-02-16T22:36:11.123Z,0.60
2018-02-16T22:38:38.682Z,0.46
2018-02-16T22:41:07.090Z,0.53
2018-02-16T22:43:34.645Z,0.62
2018-02-16T22:46:03.071Z,0.66
2018-02-16T22:48:30.624Z,0.72
2018-02-16T22:50:59.136Z,0.69
2018-02-16T22:53:27.448Z,0.60
2018-02-16T22:55:55.815Z,0.59
2018-02-16T22:58:24.290Z,0.56
2018-02-16T23:00:51.885Z,0.62
2018-02-16T23:03:19.443Z,0.59
2018-02-16T23:05:47.989Z,0.63
2018-02-16T23:08:16.261Z,0.62
2018-02-16T23:10:43.869Z,0.55
2018-02-16T23:13:12.218Z,0.55
2018-02-16T23:15:39.794Z,0.52
2018-02-16T23:18:07.855Z,0.42
2018-02-16T23:20:35.420Z,0.39
2018-02-16T23:23:03.926Z,0.43
2018-02-16T23:25:31.473Z,0.37
2018-02-16T23:27:59.926Z,0.45
2018-02-16T23:30:27.487Z,0.38
2018-02-16T23:32:55.078Z,0.35
2018-02-16T23:35:22.659Z,0.33
2018-02-16T23:37:50.250Z,0.27
2018-02-16T23:40:18.079Z,0.18
2018-02-16T23:42:46.496Z,0.15
2018-02-16T23:45:14.064Z,0.06
2018-02-16T23:47:41.630Z,-0.02
2018-02-16T23:50:09.232Z,0.09
2018-02-16T23:52:36.791Z,0.08
2018-02-16T23:55:04.446Z,0.04
2018-02-16T23:57:32.011Z,-0.07
2018-02-16T23:59:59.608Z,-0.12
